sensor_id;sensor_type;location;lat;lon;timestamp;temperature;humidity
24448;DHT22;13348;50.984;5.822;2024-03-02T00:00:29;9.60;99.90
24448;DHT22;13348;50.984;5.822;2024-03-02T00:02:56;9.70;99.90
24448;DHT22;13348;50.984;5.822;2024-03-02T00:05:25;9.70;99.90
24448;DHT22;13348;50.984;5.822;2024-03-02T00:07:52;9.80;99.90
24448;DHT22;13348;50.984;5.822;2024-03-02T00:10:22;9.80;99.90
24448;DHT22;13348;50.984;5.822;2024-03-02T00:12:50;9.80;99.90
24448;DHT22;13348;50.984;5.822;2024-03-02T00:15:35;9.70;99.90
24448;DHT22;13348;50.984;5.822;2024-03-02T00:18:04;9.70;99.90
24448;DHT22;13348;50.984;5.822;2024-03-02T00:20:32;9.80;99.90
24448;DHT22;13348;50.984;5.822;2024-03-02T00:23:01;9.80;99.90
24448;DHT22;13348;50.984;5.822;2024-03-02T00:25:34;9.80;99.90
24448;DHT22;13348;50.984;5.822;2024-03-02T00:28:01;9.90;99.90
24448;DHT22;13348;50.984;5.822;2024-03-02T00:30:38;9.80;99.90
24448;DHT22;13348;50.984;5.822;2024-03-02T00:33:08;9.80;99.90
24448;DHT22;13348;50.984;5.822;2024-03-02T00:35:36;9.80;99.90
24448;DHT22;13348;50.984;5.822;2024-03-02T00:38:04;9.90;99.90
24448;DHT22;13348;50.984;5.822;2024-03-02T00:40:31;9.90;99.90
24448;DHT22;13348;50.984;5.822;2024-03-02T00:42:58;9.80;99.90
24448;DHT22;13348;50.984;5.822;2024-03-02T00:45:26;9.80;99.90
24448;DHT22;13348;50.984;5.822;2024-03-02T00:47:53;9.80;99.90
24448;DHT22;13348;50.984;5.822;2024-03-02T00:50:21;9.80;99.90
24448;DHT22;13348;50.984;5.822;2024-03-02T00:52:49;9.80;99.90
24448;DHT22;13348;50.984;5.822;2024-03-02T00:55:16;9.70;99.90
24448;DHT22;13348;50.984;5.822;2024-03-02T00:57:43;9.70;99.90
24448;DHT22;13348;50.984;5.822;2024-03-02T01:00:11;9.70;99.90
24448;DHT22;13348;50.984;5.822;2024-03-02T01:02:41;9.70;99.90
24448;DHT22;13348;50.984;5.822;2024-03-02T01:05:09;9.70;99.90
24448;DHT22;13348;50.984;5.822;2024-03-02T01:07:37;9.40;99.90
24448;DHT22;13348;50.984;5.822;2024-03-02T01:10:06;8.70;99.90
24448;DHT22;13348;50.984;5.822;2024-03-02T01:12:35;8.00;99.90
24448;DHT22;13348;50.984;5.822;2024-03-02T01:15:02;7.60;99.90
24448;DHT22;13348;50.984;5.822;2024-03-02T01:17:33;7.40;99.90
24448;DHT22;13348;50.984;5.822;2024-03-02T01:20:00;7.30;99.90
24448;DHT22;13348;50.984;5.822;2024-03-02T01:22:27;7.20;99.90
24448;DHT22;13348;50.984;5.822;2024-03-02T01:24:54;7.10;99.90
24448;DHT22;13348;50.984;5.822;2024-03-02T01:27:22;7.10;99.90
24448;DHT22;13348;50.984;5.822;2024-03-02T01:29:49;7.10;99.90
24448;DHT22;13348;50.984;5.822;2024-03-02T01:32:16;7.20;99.90
24448;DHT22;13348;50.984;5.822;2024-03-02T01:34:43;7.20;99.90
24448;DHT22;13348;50.984;5.822;2024-03-02T01:37:10;7.20;99.90
24448;DHT22;13348;50.984;5.822;2024-03-02T01:39:37;7.20;99.90
24448;DHT22;13348;50.984;5.822;2024-03-02T01:42:04;7.20;99.90
24448;DHT22;13348;50.984;5.822;2024-03-02T01:44:33;7.20;99.90
24448;DHT22;13348;50.984;5.822;2024-03-02T01:47:00;7.20;99.90
24448;DHT22;13348;50.984;5.822;2024-03-02T01:49:26;7.20;99.90
24448;DHT22;13348;50.984;5.822;2024-03-02T01:51:53;7.30;99.90
24448;DHT22;13348;50.984;5.822;2024-03-02T01:54:21;7.30;99.90
24448;DHT22;13348;50.984;5.822;2024-03-02T01:56:47;7.30;99.90
24448;DHT22;13348;50.984;5.822;2024-03-02T01:59:14;7.10;99.90
24448;DHT22;13348;50.984;5.822;2024-03-02T02:01:43;7.00;99.90
24448;DHT22;13348;50.984;5.822;2024-03-02T02:04:10;7.00;99.90
24448;DHT22;13348;50.984;5.822;2024-03-02T02:06:37;6.90;99.90
24448;DHT22;13348;50.984;5.822;2024-03-02T02:09:04;6.80;99.90
24448;DHT22;13348;50.984;5.822;2024-03-02T02:11:31;6.70;99.90
24448;DHT22;13348;50.984;5.822;2024-03-02T02:13:58;6.60;99.90
24448;DHT22;13348;50.984;5.822;2024-03-02T02:16:25;6.70;99.90
24448;DHT22;13348;50.984;5.822;2024-03-02T02:18:53;6.60;99.90
24448;DHT22;13348;50.984;5.822;2024-03-02T02:21:23;6.60;99.90
24448;DHT22;13348;50.984;5.822;2024-03-02T02:23:50;6.60;99.90
24448;DHT22;13348;50.984;5.822;2024-03-02T02:26:17;6.70;99.90
24448;DHT22;13348;50.984;5.822;2024-03-02T02:28:44;6.60;99.90
24448;DHT22;13348;50.984;5.822;2024-03-02T02:31:13;6.50;99.90
24448;DHT22;13348;50.984;5.822;2024-03-02T02:33:40;6.50;99.90
24448;DHT22;13348;50.984;5.822;2024-03-02T02:36:07;6.50;99.90
24448;DHT22;13348;50.984;5.822;2024-03-02T02:38:37;6.50;99.90
24448;DHT22;13348;50.984;5.822;2024-03-02T02:41:04;6.50;99.90
24448;DHT22;13348;50.984;5.822;2024-03-02T02:43:32;6.50;99.90
24448;DHT22;13348;50.984;5.822;2024-03-02T02:45:58;6.50;99.90
24448;DHT22;13348;50.984;5.822;2024-03-02T02:48:25;6.60;99.90
24448;DHT22;13348;50.984;5.822;2024-03-02T02:50:53;6.60;99.90
24448;DHT22;13348;50.984;5.822;2024-03-02T02:53:20;6.60;99.90
24448;DHT22;13348;50.984;5.822;2024-03-02T02:55:48;6.60;99.90
24448;DHT22;13348;50.984;5.822;2024-03-02T02:58:15;6.60;99.90
24448;DHT22;13348;50.984;5.822;2024-03-02T03:00:45;6.60;99.90
24448;DHT22;13348;50.984;5.822;2024-03-02T03:03:12;6.60;99.90
24448;DHT22;13348;50.984;5.822;2024-03-02T03:05:39;6.60;99.90
24448;DHT22;13348;50.984;5.822;2024-03-02T03:08:06;6.60;99.90
24448;DHT22;13348;50.984;5.822;2024-03-02T03:10:33;6.70;99.90
24448;DHT22;13348;50.984;5.822;2024-03-02T03:13:01;6.70;99.90
24448;DHT22;13348;50.984;5.822;2024-03-02T03:15:29;6.70;99.90
24448;DHT22;13348;50.984;5.822;2024-03-02T03:17:56;6.80;99.90
24448;DHT22;13348;50.984;5.822;2024-03-02T03:20:23;6.70;99.90
24448;DHT22;13348;50.984;5.822;2024-03-02T03:22:50;6.70;99.90
24448;DHT22;13348;50.984;5.822;2024-03-02T03:25:17;6.70;99.90
24448;DHT22;13348;50.984;5.822;2024-03-02T03:27:44;6.70;99.90
24448;DHT22;13348;50.984;5.822;2024-03-02T03:30:13;6.80;99.90
24448;DHT22;13348;50.984;5.822;2024-03-02T03:32:40;6.80;99.90
24448;DHT22;13348;50.984;5.822;2024-03-02T03:35:07;6.80;99.90
24448;DHT22;13348;50.984;5.822;2024-03-02T03:37:34;6.70;99.90
24448;DHT22;13348;50.984;5.822;2024-03-02T03:40:01;6.70;99.90
24448;DHT22;13348;50.984;5.822;2024-03-02T03:42:35;6.70;99.90
24448;DHT22;13348;50.984;5.822;2024-03-02T03:45:02;6.70;99.90
24448;DHT22;13348;50.984;5.822;2024-03-02T03:47:32;6.70;99.90
24448;DHT22;13348;50.984;5.822;2024-03-02T03:49:59;6.70;99.90
24448;DHT22;13348;50.984;5.822;2024-03-02T03:52:26;6.70;99.90
24448;DHT22;13348;50.984;5.822;2024-03-02T03:54:53;6.70;99.90
24448;DHT22;13348;50.984;5.822;2024-03-02T03:57:20;6.70;99.90
24448;DHT22;13348;50.984;5.822;2024-03-02T03:59:47;6.80;99.90
24448;DHT22;13348;50.984;5.822;2024-03-02T04:02:14;6.80;99.90
24448;DHT22;13348;50.984;5.822;2024-03-02T04:04:42;6.80;99.90
24448;DHT22;13348;50.984;5.822;2024-03-02T04:07:09;6.80;99.90
24448;DHT22;13348;50.984;5.822;2024-03-02T04:09:36;6.80;99.90
24448;DHT22;13348;50.984;5.822;2024-03-02T04:12:03;6.80;99.90
24448;DHT22;13348;50.984;5.822;2024-03-02T04:14:30;6.70;99.90
24448;DHT22;13348;50.984;5.822;2024-03-02T04:16:57;6.70;99.90
24448;DHT22;13348;50.984;5.822;2024-03-02T04:19:24;6.80;99.90
24448;DHT22;13348;50.984;5.822;2024-03-02T04:21:53;6.80;99.90
24448;DHT22;13348;50.984;5.822;2024-03-02T04:24:20;6.80;99.90
24448;DHT22;13348;50.984;5.822;2024-03-02T04:26:46;6.70;99.90
24448;DHT22;13348;50.984;5.822;2024-03-02T04:29:14;6.70;99.90
24448;DHT22;13348;50.984;5.822;2024-03-02T04:31:40;6.70;99.90
24448;DHT22;13348;50.984;5.822;2024-03-02T04:34:07;6.80;99.90
24448;DHT22;13348;50.984;5.822;2024-03-02T04:36:34;6.70;99.90
24448;DHT22;13348;50.984;5.822;2024-03-02T04:39:03;6.70;99.90
24448;DHT22;13348;50.984;5.822;2024-03-02T04:41:30;6.80;99.90
24448;DHT22;13348;50.984;5.822;2024-03-02T04:43:56;6.90;99.90
24448;DHT22;13348;50.984;5.822;2024-03-02T04:46:23;7.00;99.90
24448;DHT22;13348;50.984;5.822;2024-03-02T04:48:50;7.10;99.90
24448;DHT22;13348;50.984;5.822;2024-03-02T04:51:21;7.10;99.90
24448;DHT22;13348;50.984;5.822;2024-03-02T04:53:48;7.00;99.90
24448;DHT22;13348;50.984;5.822;2024-03-02T04:56:16;7.00;99.90
24448;DHT22;13348;50.984;5.822;2024-03-02T04:59:04;7.10;99.90
24448;DHT22;13348;50.984;5.822;2024-03-02T05:01:31;7.10;99.90
24448;DHT22;13348;50.984;5.822;2024-03-02T05:03:59;7.10;99.90
24448;DHT22;13348;50.984;5.822;2024-03-02T05:06:26;7.10;99.90
24448;DHT22;13348;50.984;5.822;2024-03-02T05:08:53;7.10;99.90
24448;DHT22;13348;50.984;5.822;2024-03-02T05:11:21;7.10;99.90
24448;DHT22;13348;50.984;5.822;2024-03-02T05:14:06;7.10;99.90
24448;DHT22;13348;50.984;5.822;2024-03-02T05:16:33;7.10;99.90
24448;DHT22;13348;50.984;5.822;2024-03-02T05:19:00;7.10;99.90
24448;DHT22;13348;50.984;5.822;2024-03-02T05:21:27;7.20;99.90
24448;DHT22;13348;50.984;5.822;2024-03-02T05:23:57;7.10;99.90
24448;DHT22;13348;50.984;5.822;2024-03-02T05:26:25;7.10;99.90
24448;DHT22;13348;50.984;5.822;2024-03-02T05:28:52;7.20;99.90
24448;DHT22;13348;50.984;5.822;2024-03-02T05:31:19;7.20;99.90
24448;DHT22;13348;50.984;5.822;2024-03-02T05:33:46;7.10;99.90
24448;DHT22;13348;50.984;5.822;2024-03-02T05:36:13;7.00;99.90
24448;DHT22;13348;50.984;5.822;2024-03-02T05:38:40;7.00;99.90
24448;DHT22;13348;50.984;5.822;2024-03-02T05:41:08;6.90;99.90
24448;DHT22;13348;50.984;5.822;2024-03-02T05:43:36;7.00;99.90
24448;DHT22;13348;50.984;5.822;2024-03-02T05:46:03;7.00;99.90
24448;DHT22;13348;50.984;5.822;2024-03-02T05:48:30;7.00;99.90
24448;DHT22;13348;50.984;5.822;2024-03-02T05:50:57;7.00;99.90
24448;DHT22;13348;50.984;5.822;2024-03-02T05:53:24;7.00;99.90
24448;DHT22;13348;50.984;5.822;2024-03-02T05:55:51;6.90;99.90
24448;DHT22;13348;50.984;5.822;2024-03-02T05:58:20;6.90;99.90
24448;DHT22;13348;50.984;5.822;2024-03-02T06:00:59;6.90;99.90
24448;DHT22;13348;50.984;5.822;2024-03-02T06:03:26;7.00;99.90
24448;DHT22;13348;50.984;5.822;2024-03-02T06:05:54;6.80;99.90
24448;DHT22;13348;50.984;5.822;2024-03-02T06:08:21;6.80;99.90
24448;DHT22;13348;50.984;5.822;2024-03-02T06:10:48;6.60;99.90
24448;DHT22;13348;50.984;5.822;2024-03-02T06:13:15;6.50;99.90
24448;DHT22;13348;50.984;5.822;2024-03-02T06:15:41;6.40;99.90
24448;DHT22;13348;50.984;5.822;2024-03-02T06:18:10;6.50;99.90
24448;DHT22;13348;50.984;5.822;2024-03-02T06:20:37;6.40;99.90
24448;DHT22;13348;50.984;5.822;2024-03-02T06:23:04;6.40;99.90
24448;DHT22;13348;50.984;5.822;2024-03-02T06:25:31;6.40;99.90
24448;DHT22;13348;50.984;5.822;2024-03-02T06:27:58;6.50;99.90
24448;DHT22;13348;50.984;5.822;2024-03-02T06:30:24;6.50;99.90
24448;DHT22;13348;50.984;5.822;2024-03-02T06:32:51;6.40;99.90
24448;DHT22;13348;50.984;5.822;2024-03-02T06:35:20;6.50;99.90
24448;DHT22;13348;50.984;5.822;2024-03-02T06:37:46;6.40;99.90
24448;DHT22;13348;50.984;5.822;2024-03-02T06:40:13;6.40;99.90
24448;DHT22;13348;50.984;5.822;2024-03-02T06:42:40;6.30;99.90
24448;DHT22;13348;50.984;5.822;2024-03-02T06:45:07;6.20;99.90
24448;DHT22;13348;50.984;5.822;2024-03-02T06:47:34;6.40;99.90
24448;DHT22;13348;50.984;5.822;2024-03-02T06:50:01;6.50;99.90
24448;DHT22;13348;50.984;5.822;2024-03-02T06:52:29;6.50;99.90
24448;DHT22;13348;50.984;5.822;2024-03-02T06:54:56;6.60;99.90
24448;DHT22;13348;50.984;5.822;2024-03-02T06:57:23;6.50;99.90
24448;DHT22;13348;50.984;5.822;2024-03-02T06:59:51;6.50;99.90
24448;DHT22;13348;50.984;5.822;2024-03-02T07:02:20;6.60;99.90
24448;DHT22;13348;50.984;5.822;2024-03-02T07:04:48;6.80;99.90
24448;DHT22;13348;50.984;5.822;2024-03-02T07:07:16;6.70;99.90
24448;DHT22;13348;50.984;5.822;2024-03-02T07:09:45;6.80;99.90
24448;DHT22;13348;50.984;5.822;2024-03-02T07:12:11;6.80;99.90
24448;DHT22;13348;50.984;5.822;2024-03-02T07:14:38;6.90;99.90
24448;DHT22;13348;50.984;5.822;2024-03-02T07:17:33;7.10;99.90
24448;DHT22;13348;50.984;5.822;2024-03-02T07:20:01;7.20;99.90
24448;DHT22;13348;50.984;5.822;2024-03-02T07:22:29;7.30;99.90
24448;DHT22;13348;50.984;5.822;2024-03-02T07:24:57;7.50;99.90
24448;DHT22;13348;50.984;5.822;2024-03-02T07:27:24;7.60;99.90
24448;DHT22;13348;50.984;5.822;2024-03-02T07:29:51;7.70;99.90
24448;DHT22;13348;50.984;5.822;2024-03-02T07:32:18;7.70;99.90
24448;DHT22;13348;50.984;5.822;2024-03-02T07:34:45;7.80;99.90
24448;DHT22;13348;50.984;5.822;2024-03-02T07:37:12;7.90;99.90
24448;DHT22;13348;50.984;5.822;2024-03-02T07:39:39;7.90;99.90
24448;DHT22;13348;50.984;5.822;2024-03-02T07:42:09;8.00;99.90
24448;DHT22;13348;50.984;5.822;2024-03-02T07:44:36;8.10;99.90
24448;DHT22;13348;50.984;5.822;2024-03-02T07:47:03;8.10;99.90
24448;DHT22;13348;50.984;5.822;2024-03-02T07:49:30;8.10;99.90
24448;DHT22;13348;50.984;5.822;2024-03-02T07:51:57;8.10;99.90
24448;DHT22;13348;50.984;5.822;2024-03-02T07:54:24;8.10;99.90
24448;DHT22;13348;50.984;5.822;2024-03-02T07:56:51;8.10;99.90
24448;DHT22;13348;50.984;5.822;2024-03-02T07:59:19;8.10;99.90
24448;DHT22;13348;50.984;5.822;2024-03-02T08:01:48;8.20;99.90
24448;DHT22;13348;50.984;5.822;2024-03-02T08:04:15;8.10;99.90
24448;DHT22;13348;50.984;5.822;2024-03-02T08:06:42;8.10;99.90
24448;DHT22;13348;50.984;5.822;2024-03-02T08:09:09;8.10;99.90
24448;DHT22;13348;50.984;5.822;2024-03-02T08:11:36;8.10;99.90
24448;DHT22;13348;50.984;5.822;2024-03-02T08:14:04;8.10;99.90
24448;DHT22;13348;50.984;5.822;2024-03-02T08:16:32;8.10;99.90
24448;DHT22;13348;50.984;5.822;2024-03-02T08:18:59;8.20;99.90
24448;DHT22;13348;50.984;5.822;2024-03-02T08:21:26;8.30;99.90
24448;DHT22;13348;50.984;5.822;2024-03-02T08:23:56;8.30;99.90
24448;DHT22;13348;50.984;5.822;2024-03-02T08:26:23;8.40;99.90
24448;DHT22;13348;50.984;5.822;2024-03-02T08:28:50;8.50;99.90
24448;DHT22;13348;50.984;5.822;2024-03-02T08:31:17;8.50;99.90
24448;DHT22;13348;50.984;5.822;2024-03-02T08:33:45;8.60;99.90
24448;DHT22;13348;50.984;5.822;2024-03-02T08:36:12;8.60;99.90
24448;DHT22;13348;50.984;5.822;2024-03-02T08:38:39;8.70;99.90
24448;DHT22;13348;50.984;5.822;2024-03-02T08:41:06;8.80;99.90
24448;DHT22;13348;50.984;5.822;2024-03-02T08:43:34;8.90;99.90
24448;DHT22;13348;50.984;5.822;2024-03-02T08:46:01;9.20;99.90
24448;DHT22;13348;50.984;5.822;2024-03-02T08:48:28;9.30;99.90
24448;DHT22;13348;50.984;5.822;2024-03-02T08:50:56;9.20;99.90
24448;DHT22;13348;50.984;5.822;2024-03-02T08:53:26;9.20;99.90
24448;DHT22;13348;50.984;5.822;2024-03-02T08:55:53;9.30;99.90
24448;DHT22;13348;50.984;5.822;2024-03-02T08:58:20;9.40;99.90
24448;DHT22;13348;50.984;5.822;2024-03-02T09:00:47;9.40;99.90
24448;DHT22;13348;50.984;5.822;2024-03-02T09:03:14;9.30;99.90
24448;DHT22;13348;50.984;5.822;2024-03-02T09:05:41;9.20;99.90
24448;DHT22;13348;50.984;5.822;2024-03-02T09:08:10;9.30;99.90
24448;DHT22;13348;50.984;5.822;2024-03-02T09:10:37;9.40;99.90
24448;DHT22;13348;50.984;5.822;2024-03-02T09:13:05;9.50;99.90
24448;DHT22;13348;50.984;5.822;2024-03-02T09:15:32;9.80;99.90
24448;DHT22;13348;50.984;5.822;2024-03-02T09:18:03;10.00;99.90
24448;DHT22;13348;50.984;5.822;2024-03-02T09:20:30;10.10;99.90
24448;DHT22;13348;50.984;5.822;2024-03-02T09:22:57;10.10;99.90
24448;DHT22;13348;50.984;5.822;2024-03-02T09:25:25;10.30;99.90
24448;DHT22;13348;50.984;5.822;2024-03-02T09:27:53;10.40;99.90
24448;DHT22;13348;50.984;5.822;2024-03-02T09:30:20;10.60;99.90
24448;DHT22;13348;50.984;5.822;2024-03-02T09:32:47;10.60;99.90
24448;DHT22;13348;50.984;5.822;2024-03-02T09:35:14;10.60;99.90
24448;DHT22;13348;50.984;5.822;2024-03-02T09:37:41;11.00;99.90
24448;DHT22;13348;50.984;5.822;2024-03-02T09:40:09;10.90;99.90
24448;DHT22;13348;50.984;5.822;2024-03-02T09:42:37;11.00;99.90
24448;DHT22;13348;50.984;5.822;2024-03-02T09:45:05;11.10;99.90
24448;DHT22;13348;50.984;5.822;2024-03-02T09:47:32;11.10;99.90
24448;DHT22;13348;50.984;5.822;2024-03-02T09:49:59;11.20;99.90
24448;DHT22;13348;50.984;5.822;2024-03-02T09:52:26;11.20;99.90
24448;DHT22;13348;50.984;5.822;2024-03-02T09:54:53;11.30;99.90
24448;DHT22;13348;50.984;5.822;2024-03-02T09:57:20;11.50;99.90
24448;DHT22;13348;50.984;5.822;2024-03-02T09:59:49;11.50;99.90
24448;DHT22;13348;50.984;5.822;2024-03-02T10:02:16;11.50;99.90
24448;DHT22;13348;50.984;5.822;2024-03-02T10:04:44;11.90;99.90
24448;DHT22;13348;50.984;5.822;2024-03-02T10:07:13;11.90;99.90
24448;DHT22;13348;50.984;5.822;2024-03-02T10:09:40;12.30;99.90
24448;DHT22;13348;50.984;5.822;2024-03-02T10:12:07;12.60;99.90
24448;DHT22;13348;50.984;5.822;2024-03-02T10:14:34;12.60;99.90
24448;DHT22;13348;50.984;5.822;2024-03-02T10:17:03;12.50;99.90
24448;DHT22;13348;50.984;5.822;2024-03-02T10:19:31;12.30;99.90
24448;DHT22;13348;50.984;5.822;2024-03-02T10:21:58;12.30;99.90
24448;DHT22;13348;50.984;5.822;2024-03-02T10:24:26;12.30;99.90
24448;DHT22;13348;50.984;5.822;2024-03-02T10:26:53;12.40;99.90
24448;DHT22;13348;50.984;5.822;2024-03-02T10:29:22;12.70;99.90
24448;DHT22;13348;50.984;5.822;2024-03-02T10:31:49;12.90;99.90
24448;DHT22;13348;50.984;5.822;2024-03-02T10:34:17;12.90;99.90
24448;DHT22;13348;50.984;5.822;2024-03-02T10:36:44;12.90;99.90
24448;DHT22;13348;50.984;5.822;2024-03-02T10:39:12;13.20;99.90
24448;DHT22;13348;50.984;5.822;2024-03-02T10:41:39;13.10;99.90
24448;DHT22;13348;50.984;5.822;2024-03-02T10:44:06;13.00;99.90
24448;DHT22;13348;50.984;5.822;2024-03-02T10:46:34;12.90;99.90
24448;DHT22;13348;50.984;5.822;2024-03-02T10:49:01;13.30;99.90
24448;DHT22;13348;50.984;5.822;2024-03-02T10:51:32;13.40;99.90
24448;DHT22;13348;50.984;5.822;2024-03-02T10:53:59;13.40;99.90
24448;DHT22;13348;50.984;5.822;2024-03-02T10:56:28;13.20;99.90
24448;DHT22;13348;50.984;5.822;2024-03-02T10:58:55;13.30;99.90
24448;DHT22;13348;50.984;5.822;2024-03-02T11:01:26;13.40;99.90
24448;DHT22;13348;50.984;5.822;2024-03-02T11:03:53;13.90;99.90
24448;DHT22;13348;50.984;5.822;2024-03-02T11:06:20;14.20;99.90
24448;DHT22;13348;50.984;5.822;2024-03-02T11:08:50;14.00;99.90
24448;DHT22;13348;50.984;5.822;2024-03-02T11:11:21;14.10;99.90
24448;DHT22;13348;50.984;5.822;2024-03-02T11:13:49;14.60;99.90
24448;DHT22;13348;50.984;5.822;2024-03-02T11:16:17;14.30;99.90
24448;DHT22;13348;50.984;5.822;2024-03-02T11:18:45;14.30;99.90
24448;DHT22;13348;50.984;5.822;2024-03-02T11:21:12;14.20;99.90
24448;DHT22;13348;50.984;5.822;2024-03-02T11:23:40;14.60;99.90
24448;DHT22;13348;50.984;5.822;2024-03-02T11:26:17;14.40;99.90
24448;DHT22;13348;50.984;5.822;2024-03-02T11:28:44;14.30;99.80
24448;DHT22;13348;50.984;5.822;2024-03-02T11:31:12;14.00;99.90
24448;DHT22;13348;50.984;5.822;2024-03-02T11:33:39;14.10;99.90
24448;DHT22;13348;50.984;5.822;2024-03-02T11:36:06;14.40;99.90
24448;DHT22;13348;50.984;5.822;2024-03-02T11:38:35;14.30;99.90
24448;DHT22;13348;50.984;5.822;2024-03-02T11:41:03;14.40;99.90
24448;DHT22;13348;50.984;5.822;2024-03-02T11:43:34;14.40;99.90
24448;DHT22;13348;50.984;5.822;2024-03-02T11:46:05;14.20;99.90
24448;DHT22;13348;50.984;5.822;2024-03-02T11:48:33;14.40;99.90
24448;DHT22;13348;50.984;5.822;2024-03-02T11:51:01;14.30;99.90
24448;DHT22;13348;50.984;5.822;2024-03-02T11:53:28;14.50;99.90
24448;DHT22;13348;50.984;5.822;2024-03-02T11:55:57;14.70;99.80
24448;DHT22;13348;50.984;5.822;2024-03-02T11:58:24;15.00;99.90
24448;DHT22;13348;50.984;5.822;2024-03-02T12:00:53;15.10;96.30
24448;DHT22;13348;50.984;5.822;2024-03-02T12:03:22;15.10;97.90
24448;DHT22;13348;50.984;5.822;2024-03-02T12:05:50;15.10;96.70
24448;DHT22;13348;50.984;5.822;2024-03-02T12:08:18;15.40;95.20
24448;DHT22;13348;50.984;5.822;2024-03-02T12:10:56;16.00;95.00
24448;DHT22;13348;50.984;5.822;2024-03-02T12:13:23;15.60;95.60
24448;DHT22;13348;50.984;5.822;2024-03-02T12:15:54;15.50;93.60
24448;DHT22;13348;50.984;5.822;2024-03-02T12:18:21;15.10;96.50
24448;DHT22;13348;50.984;5.822;2024-03-02T12:20:48;15.20;95.70
24448;DHT22;13348;50.984;5.822;2024-03-02T12:23:16;15.20;98.40
24448;DHT22;13348;50.984;5.822;2024-03-02T12:25:43;15.80;97.30
24448;DHT22;13348;50.984;5.822;2024-03-02T12:28:10;16.20;96.50
24448;DHT22;13348;50.984;5.822;2024-03-02T12:30:37;16.00;91.20
24448;DHT22;13348;50.984;5.822;2024-03-02T12:33:06;16.20;94.10
24448;DHT22;13348;50.984;5.822;2024-03-02T12:35:33;16.30;91.80
24448;DHT22;13348;50.984;5.822;2024-03-02T12:37:59;15.80;91.60
24448;DHT22;13348;50.984;5.822;2024-03-02T12:40:26;16.60;91.00
24448;DHT22;13348;50.984;5.822;2024-03-02T12:42:53;16.60;90.00
24448;DHT22;13348;50.984;5.822;2024-03-02T12:45:20;16.40;89.40
24448;DHT22;13348;50.984;5.822;2024-03-02T12:47:49;16.60;91.10
24448;DHT22;13348;50.984;5.822;2024-03-02T12:50:17;16.60;87.10
24448;DHT22;13348;50.984;5.822;2024-03-02T12:52:50;16.60;86.30
24448;DHT22;13348;50.984;5.822;2024-03-02T12:55:17;16.00;90.60
24448;DHT22;13348;50.984;5.822;2024-03-02T12:57:44;15.30;94.80
24448;DHT22;13348;50.984;5.822;2024-03-02T13:00:11;15.10;97.60
24448;DHT22;13348;50.984;5.822;2024-03-02T13:02:40;14.60;99.90
24448;DHT22;13348;50.984;5.822;2024-03-02T13:05:07;15.20;99.90
24448;DHT22;13348;50.984;5.822;2024-03-02T13:07:38;16.00;97.70
24448;DHT22;13348;50.984;5.822;2024-03-02T13:10:05;15.70;94.70
24448;DHT22;13348;50.984;5.822;2024-03-02T13:12:33;15.10;99.90
24448;DHT22;13348;50.984;5.822;2024-03-02T13:15:00;14.90;99.90
24448;DHT22;13348;50.984;5.822;2024-03-02T13:17:28;15.10;99.90
24448;DHT22;13348;50.984;5.822;2024-03-02T13:19:55;15.20;99.90
24448;DHT22;13348;50.984;5.822;2024-03-02T13:22:22;15.20;99.90
24448;DHT22;13348;50.984;5.822;2024-03-02T13:24:51;15.50;99.90
24448;DHT22;13348;50.984;5.822;2024-03-02T13:27:19;15.30;99.90
24448;DHT22;13348;50.984;5.822;2024-03-02T13:29:46;14.90;99.90
24448;DHT22;13348;50.984;5.822;2024-03-02T13:32:13;15.00;99.90
24448;DHT22;13348;50.984;5.822;2024-03-02T13:34:40;15.30;99.90
24448;DHT22;13348;50.984;5.822;2024-03-02T13:37:07;15.40;99.90
24448;DHT22;13348;50.984;5.822;2024-03-02T13:39:34;15.50;99.90
24448;DHT22;13348;50.984;5.822;2024-03-02T13:42:08;15.50;99.20
24448;DHT22;13348;50.984;5.822;2024-03-02T13:44:35;16.00;99.90
24448;DHT22;13348;50.984;5.822;2024-03-02T13:47:02;16.50;97.10
24448;DHT22;13348;50.984;5.822;2024-03-02T13:49:30;15.90;96.90
24448;DHT22;13348;50.984;5.822;2024-03-02T13:52:01;15.60;99.90
24448;DHT22;13348;50.984;5.822;2024-03-02T13:54:37;14.80;99.90
24448;DHT22;13348;50.984;5.822;2024-03-02T13:57:04;14.80;99.90
24448;DHT22;13348;50.984;5.822;2024-03-02T13:59:32;14.60;99.90
24448;DHT22;13348;50.984;5.822;2024-03-02T14:01:59;14.80;99.90
24448;DHT22;13348;50.984;5.822;2024-03-02T14:04:26;15.20;99.90
24448;DHT22;13348;50.984;5.822;2024-03-02T14:06:53;15.30;99.90
24448;DHT22;13348;50.984;5.822;2024-03-02T14:09:21;15.50;99.90
24448;DHT22;13348;50.984;5.822;2024-03-02T14:11:49;16.10;99.90
24448;DHT22;13348;50.984;5.822;2024-03-02T14:14:16;16.50;98.00
24448;DHT22;13348;50.984;5.822;2024-03-02T14:16:45;15.80;99.90
24448;DHT22;13348;50.984;5.822;2024-03-02T14:19:11;15.60;99.90
24448;DHT22;13348;50.984;5.822;2024-03-02T14:21:38;15.70;99.90
24448;DHT22;13348;50.984;5.822;2024-03-02T14:24:05;15.40;99.90
24448;DHT22;13348;50.984;5.822;2024-03-02T14:26:33;15.00;99.90
24448;DHT22;13348;50.984;5.822;2024-03-02T14:29:01;14.70;99.90
24448;DHT22;13348;50.984;5.822;2024-03-02T14:31:28;15.30;99.90
24448;DHT22;13348;50.984;5.822;2024-03-02T14:33:58;15.70;99.80
24448;DHT22;13348;50.984;5.822;2024-03-02T14:36:25;15.90;99.50
24448;DHT22;13348;50.984;5.822;2024-03-02T14:38:52;16.60;98.50
24448;DHT22;13348;50.984;5.822;2024-03-02T14:41:20;16.60;93.40
24448;DHT22;13348;50.984;5.822;2024-03-02T14:43:46;16.10;98.20
24448;DHT22;13348;50.984;5.822;2024-03-02T14:46:14;15.90;98.90
24448;DHT22;13348;50.984;5.822;2024-03-02T14:48:43;15.50;99.80
24448;DHT22;13348;50.984;5.822;2024-03-02T14:51:12;14.80;99.90
24448;DHT22;13348;50.984;5.822;2024-03-02T14:53:39;14.60;99.90
24448;DHT22;13348;50.984;5.822;2024-03-02T14:56:06;14.70;99.90
24448;DHT22;13348;50.984;5.822;2024-03-02T14:58:33;14.60;99.90
24448;DHT22;13348;50.984;5.822;2024-03-02T15:01:03;14.50;99.90
24448;DHT22;13348;50.984;5.822;2024-03-02T15:03:30;14.40;99.90
24448;DHT22;13348;50.984;5.822;2024-03-02T15:05:57;14.40;99.90
24448;DHT22;13348;50.984;5.822;2024-03-02T15:08:25;14.20;99.90
24448;DHT22;13348;50.984;5.822;2024-03-02T15:10:52;14.10;99.90
24448;DHT22;13348;50.984;5.822;2024-03-02T15:13:21;14.10;99.90
24448;DHT22;13348;50.984;5.822;2024-03-02T15:15:48;14.20;99.90
24448;DHT22;13348;50.984;5.822;2024-03-02T15:18:16;14.20;99.90
24448;DHT22;13348;50.984;5.822;2024-03-02T15:20:43;14.00;99.90
24448;DHT22;13348;50.984;5.822;2024-03-02T15:23:10;13.80;99.90
24448;DHT22;13348;50.984;5.822;2024-03-02T15:25:38;13.80;99.90
24448;DHT22;13348;50.984;5.822;2024-03-02T15:28:05;13.70;99.90
24448;DHT22;13348;50.984;5.822;2024-03-02T15:30:33;13.70;99.90
24448;DHT22;13348;50.984;5.822;2024-03-02T15:33:00;13.70;99.90
24448;DHT22;13348;50.984;5.822;2024-03-02T15:35:27;13.70;99.90
24448;DHT22;13348;50.984;5.822;2024-03-02T15:37:54;13.70;99.90
24448;DHT22;13348;50.984;5.822;2024-03-02T15:40:21;13.70;99.90
24448;DHT22;13348;50.984;5.822;2024-03-02T15:42:49;13.80;99.90